sensor_id;sensor_type;location;lat;lon;timestamp;P1;durP1;ratioP1;P2;durP2;ratioP2
17595;SDS011;8916;47.086;15.920;2023-02-28T00:00:38;10.23;;;5.57;;
17595;SDS011;8916;47.086;15.920;2023-02-28T00:03:07;11.35;;;5.35;;
17595;SDS011;8916;47.086;15.920;2023-02-28T00:05:36;11.27;;;5.95;;
17595;SDS011;8916;47.086;15.920;2023-02-28T00:08:07;11.15;;;5.80;;
17595;SDS011;8916;47.086;15.920;2023-02-28T00:10:36;9.88;;;5.63;;
17595;SDS011;8916;47.086;15.920;2023-02-28T00:13:06;15.80;;;6.65;;
17595;SDS011;8916;47.086;15.920;2023-02-28T00:15:36;16.90;;;6.57;;
17595;SDS011;8916;47.086;15.920;2023-02-28T00:18:05;14.00;;;5.72;;
17595;SDS011;8916;47.086;15.920;2023-02-28T00:20:34;14.02;;;5.97;;
17595;SDS011;8916;47.086;15.920;2023-02-28T00:23:07;10.30;;;5.65;;
17595;SDS011;8916;47.086;15.920;2023-02-28T00:25:36;10.68;;;5.82;;
17595;SDS011;8916;47.086;15.920;2023-02-28T00:28:05;13.10;;;6.25;;
17595;SDS011;8916;47.086;15.920;2023-02-28T00:30:35;13.40;;;6.57;;
17595;SDS011;8916;47.086;15.920;2023-02-28T00:33:04;15.45;;;6.53;;
17595;SDS011;8916;47.086;15.920;2023-02-28T00:35:33;13.38;;;6.18;;
17595;SDS011;8916;47.086;15.920;2023-02-28T00:38:03;13.10;;;6.18;;
17595;SDS011;8916;47.086;15.920;2023-02-28T00:40:36;11.82;;;6.30;;
17595;SDS011;8916;47.086;15.920;2023-02-28T00:43:05;11.77;;;6.30;;
17595;SDS011;8916;47.086;15.920;2023-02-28T00:45:34;10.85;;;6.20;;
17595;SDS011;8916;47.086;15.920;2023-02-28T00:48:04;16.17;;;6.47;;
17595;SDS011;8916;47.086;15.920;2023-02-28T00:50:33;13.98;;;6.30;;
17595;SDS011;8916;47.086;15.920;2023-02-28T00:53:02;10.05;;;5.75;;
17595;SDS011;8916;47.086;15.920;2023-02-28T00:55:31;9.88;;;5.80;;
17595;SDS011;8916;47.086;15.920;2023-02-28T00:58:05;14.13;;;6.65;;
17595;SDS011;8916;47.086;15.920;2023-02-28T01:00:34;13.73;;;6.95;;
17595;SDS011;8916;47.086;15.920;2023-02-28T01:03:03;11.48;;;6.88;;
17595;SDS011;8916;47.086;15.920;2023-02-28T01:05:32;16.13;;;7.55;;
17595;SDS011;8916;47.086;15.920;2023-02-28T01:08:01;13.95;;;7.65;;
17595;SDS011;8916;47.086;15.920;2023-02-28T01:10:31;12.85;;;7.10;;
17595;SDS011;8916;47.086;15.920;2023-02-28T01:13:00;12.23;;;6.55;;
17595;SDS011;8916;47.086;15.920;2023-02-28T01:15:30;12.52;;;6.78;;
17595;SDS011;8916;47.086;15.920;2023-02-28T01:18:00;11.88;;;6.25;;
17595;SDS011;8916;47.086;15.920;2023-02-28T01:20:31;16.92;;;7.10;;
17595;SDS011;8916;47.086;15.920;2023-02-28T01:23:01;14.40;;;6.95;;
17595;SDS011;8916;47.086;15.920;2023-02-28T01:25:30;13.52;;;6.82;;
17595;SDS011;8916;47.086;15.920;2023-02-28T01:27:59;14.88;;;7.00;;
17595;SDS011;8916;47.086;15.920;2023-02-28T01:30:28;13.70;;;7.10;;
17595;SDS011;8916;47.086;15.920;2023-02-28T01:32:58;11.52;;;6.90;;
17595;SDS011;8916;47.086;15.920;2023-02-28T01:35:28;14.70;;;7.32;;
17595;SDS011;8916;47.086;15.920;2023-02-28T01:38:03;12.98;;;6.65;;
17595;SDS011;8916;47.086;15.920;2023-02-28T01:40:47;14.90;;;7.28;;
17595;SDS011;8916;47.086;15.920;2023-02-28T01:43:19;15.65;;;6.75;;
17595;SDS011;8916;47.086;15.920;2023-02-28T01:45:51;13.75;;;7.32;;
17595;SDS011;8916;47.086;15.920;2023-02-28T01:48:24;14.38;;;6.30;;
17595;SDS011;8916;47.086;15.920;2023-02-28T01:50:57;16.38;;;6.80;;
17595;SDS011;8916;47.086;15.920;2023-02-28T01:53:32;13.23;;;6.60;;
17595;SDS011;8916;47.086;15.920;2023-02-28T01:56:05;13.98;;;7.70;;
17595;SDS011;8916;47.086;15.920;2023-02-28T01:58:37;15.38;;;6.88;;
17595;SDS011;8916;47.086;15.920;2023-02-28T02:01:06;15.52;;;6.53;;
17595;SDS011;8916;47.086;15.920;2023-02-28T02:03:37;10.95;;;6.80;;
17595;SDS011;8916;47.086;15.920;2023-02-28T02:06:06;13.07;;;6.55;;
17595;SDS011;8916;47.086;15.920;2023-02-28T02:08:37;15.75;;;6.47;;
17595;SDS011;8916;47.086;15.920;2023-02-28T02:11:07;12.18;;;6.57;;
17595;SDS011;8916;47.086;15.920;2023-02-28T02:16:54;15.20;;;7.45;;
17595;SDS011;8916;47.086;15.920;2023-02-28T02:26:34;15.70;;;7.47;;
17595;SDS011;8916;47.086;15.920;2023-02-28T02:29:40;16.02;;;7.25;;
17595;SDS011;8916;47.086;15.920;2023-02-28T02:35:49;15.48;;;7.07;;
17595;SDS011;8916;47.086;15.920;2023-02-28T02:38:26;11.93;;;6.43;;
17595;SDS011;8916;47.086;15.920;2023-02-28T02:41:04;18.02;;;7.38;;
17595;SDS011;8916;47.086;15.920;2023-02-28T02:43:44;13.15;;;6.90;;
17595;SDS011;8916;47.086;15.920;2023-02-28T02:46:19;14.27;;;7.13;;
17595;SDS011;8916;47.086;15.920;2023-02-28T02:48:52;12.70;;;7.47;;
17595;SDS011;8916;47.086;15.920;2023-02-28T02:51:26;18.15;;;7.45;;
17595;SDS011;8916;47.086;15.920;2023-02-28T02:53:57;15.23;;;7.88;;
17595;SDS011;8916;47.086;15.920;2023-02-28T02:56:31;12.73;;;7.38;;
17595;SDS011;8916;47.086;15.920;2023-02-28T02:59:03;14.27;;;7.85;;
17595;SDS011;8916;47.086;15.920;2023-02-28T03:01:37;12.40;;;7.35;;
17595;SDS011;8916;47.086;15.920;2023-02-28T03:04:09;13.02;;;7.47;;
17595;SDS011;8916;47.086;15.920;2023-02-28T03:06:43;14.60;;;7.55;;
17595;SDS011;8916;47.086;15.920;2023-02-28T03:09:12;13.55;;;7.82;;
17595;SDS011;8916;47.086;15.920;2023-02-28T03:11:42;15.35;;;7.80;;
17595;SDS011;8916;47.086;15.920;2023-02-28T03:14:17;14.68;;;8.20;;
17595;SDS011;8916;47.086;15.920;2023-02-28T03:17:10;14.77;;;8.13;;
17595;SDS011;8916;47.086;15.920;2023-02-28T03:20:12;15.23;;;8.10;;
17595;SDS011;8916;47.086;15.920;2023-02-28T03:22:53;15.80;;;8.43;;
17595;SDS011;8916;47.086;15.920;2023-02-28T03:25:37;20.40;;;8.18;;
17595;SDS011;8916;47.086;15.920;2023-02-28T03:28:16;18.80;;;8.57;;
17595;SDS011;8916;47.086;15.920;2023-02-28T03:30:54;18.67;;;8.85;;
17595;SDS011;8916;47.086;15.920;2023-02-28T03:33:30;14.30;;;7.28;;
17595;SDS011;8916;47.086;15.920;2023-02-28T03:36:05;16.33;;;8.07;;
17595;SDS011;8916;47.086;15.920;2023-02-28T03:38:41;14.73;;;8.18;;
17595;SDS011;8916;47.086;15.920;2023-02-28T03:41:17;15.98;;;8.98;;
17595;SDS011;8916;47.086;15.920;2023-02-28T03:43:52;15.68;;;8.48;;
17595;SDS011;8916;47.086;15.920;2023-02-28T03:46:25;17.02;;;8.48;;
17595;SDS011;8916;47.086;15.920;2023-02-28T03:49:00;20.85;;;9.65;;
17595;SDS011;8916;47.086;15.920;2023-02-28T03:51:37;18.60;;;8.15;;
17595;SDS011;8916;47.086;15.920;2023-02-28T03:54:12;16.27;;;8.52;;
17595;SDS011;8916;47.086;15.920;2023-02-28T03:56:47;15.90;;;8.32;;
17595;SDS011;8916;47.086;15.920;2023-02-28T03:59:23;16.98;;;8.68;;
17595;SDS011;8916;47.086;15.920;2023-02-28T04:01:57;15.45;;;8.98;;
17595;SDS011;8916;47.086;15.920;2023-02-28T04:04:26;17.50;;;9.18;;
17595;SDS011;8916;47.086;15.920;2023-02-28T04:07:00;17.33;;;9.10;;
17595;SDS011;8916;47.086;15.920;2023-02-28T04:09:32;13.15;;;8.02;;
17595;SDS011;8916;47.086;15.920;2023-02-28T04:12:02;17.05;;;10.18;;
17595;SDS011;8916;47.086;15.920;2023-02-28T04:14:31;17.45;;;8.90;;
17595;SDS011;8916;47.086;15.920;2023-02-28T04:17:00;16.83;;;8.45;;
17595;SDS011;8916;47.086;15.920;2023-02-28T04:19:29;18.33;;;8.73;;
17595;SDS011;8916;47.086;15.920;2023-02-28T04:21:58;14.85;;;8.38;;
17595;SDS011;8916;47.086;15.920;2023-02-28T04:24:27;17.15;;;8.55;;
17595;SDS011;8916;47.086;15.920;2023-02-28T04:26:58;16.77;;;8.98;;
17595;SDS011;8916;47.086;15.920;2023-02-28T04:29:28;16.75;;;8.45;;
17595;SDS011;8916;47.086;15.920;2023-02-28T04:32:00;19.42;;;8.60;;
17595;SDS011;8916;47.086;15.920;2023-02-28T04:34:31;13.38;;;7.93;;
17595;SDS011;8916;47.086;15.920;2023-02-28T04:37:00;15.32;;;8.30;;
17595;SDS011;8916;47.086;15.920;2023-02-28T04:39:40;14.98;;;8.45;;
17595;SDS011;8916;47.086;15.920;2023-02-28T04:42:12;16.25;;;8.82;;
17595;SDS011;8916;47.086;15.920;2023-02-28T04:44:41;17.65;;;8.00;;
17595;SDS011;8916;47.086;15.920;2023-02-28T04:47:10;18.15;;;8.73;;
17595;SDS011;8916;47.086;15.920;2023-02-28T04:49:39;13.52;;;7.93;;
17595;SDS011;8916;47.086;15.920;2023-02-28T04:52:10;17.73;;;8.02;;
17595;SDS011;8916;47.086;15.920;2023-02-28T04:54:40;15.15;;;7.32;;
17595;SDS011;8916;47.086;15.920;2023-02-28T04:57:09;14.13;;;7.75;;
17595;SDS011;8916;47.086;15.920;2023-02-28T04:59:39;16.13;;;8.32;;
17595;SDS011;8916;47.086;15.920;2023-02-28T05:02:08;16.27;;;8.40;;
17595;SDS011;8916;47.086;15.920;2023-02-28T05:04:38;13.65;;;8.25;;
17595;SDS011;8916;47.086;15.920;2023-02-28T05:07:07;18.98;;;8.93;;
17595;SDS011;8916;47.086;15.920;2023-02-28T05:09:36;20.30;;;7.90;;
17595;SDS011;8916;47.086;15.920;2023-02-28T05:12:06;19.38;;;9.07;;
17595;SDS011;8916;47.086;15.920;2023-02-28T05:14:36;16.77;;;8.70;;
17595;SDS011;8916;47.086;15.920;2023-02-28T05:17:07;16.10;;;8.70;;
17595;SDS011;8916;47.086;15.920;2023-02-28T05:19:37;15.80;;;8.88;;
17595;SDS011;8916;47.086;15.920;2023-02-28T05:22:11;13.82;;;8.07;;
17595;SDS011;8916;47.086;15.920;2023-02-28T05:24:42;15.45;;;8.68;;
17595;SDS011;8916;47.086;15.920;2023-02-28T05:27:11;20.85;;;8.93;;
17595;SDS011;8916;47.086;15.920;2023-02-28T05:29:40;16.30;;;8.88;;
17595;SDS011;8916;47.086;15.920;2023-02-28T05:32:14;23.42;;;9.02;;
17595;SDS011;8916;47.086;15.920;2023-02-28T05:34:43;14.40;;;8.40;;
17595;SDS011;8916;47.086;15.920;2023-02-28T05:37:13;17.85;;;9.18;;
17595;SDS011;8916;47.086;15.920;2023-02-28T05:39:43;17.83;;;8.75;;
17595;SDS011;8916;47.086;15.920;2023-02-28T05:42:12;20.98;;;10.25;;
17595;SDS011;8916;47.086;15.920;2023-02-28T05:44:43;21.02;;;9.63;;
17595;SDS011;8916;47.086;15.920;2023-02-28T05:47:14;17.25;;;9.10;;
17595;SDS011;8916;47.086;15.920;2023-02-28T05:49:44;18.90;;;9.27;;
17595;SDS011;8916;47.086;15.920;2023-02-28T05:52:13;16.50;;;8.90;;
17595;SDS011;8916;47.086;15.920;2023-02-28T05:54:43;18.63;;;9.95;;
17595;SDS011;8916;47.086;15.920;2023-02-28T05:57:12;16.13;;;9.20;;
17595;SDS011;8916;47.086;15.920;2023-02-28T05:59:50;18.77;;;9.18;;
17595;SDS011;8916;47.086;15.920;2023-02-28T06:02:21;20.23;;;9.23;;
17595;SDS011;8916;47.086;15.920;2023-02-28T06:04:50;19.40;;;8.27;;
17595;SDS011;8916;47.086;15.920;2023-02-28T06:07:19;13.10;;;8.32;;
17595;SDS011;8916;47.086;15.920;2023-02-28T06:09:49;17.15;;;8.75;;
17595;SDS011;8916;47.086;15.920;2023-02-28T06:12:21;17.85;;;9.10;;
17595;SDS011;8916;47.086;15.920;2023-02-28T06:14:50;20.05;;;9.88;;
17595;SDS011;8916;47.086;15.920;2023-02-28T06:17:23;20.83;;;9.55;;
17595;SDS011;8916;47.086;15.920;2023-02-28T06:19:52;20.60;;;9.82;;
17595;SDS011;8916;47.086;15.920;2023-02-28T06:22:21;17.55;;;9.57;;
17595;SDS011;8916;47.086;15.920;2023-02-28T06:24:50;18.38;;;9.65;;
17595;SDS011;8916;47.086;15.920;2023-02-28T06:27:20;16.98;;;9.45;;
17595;SDS011;8916;47.086;15.920;2023-02-28T06:29:52;16.45;;;9.40;;
17595;SDS011;8916;47.086;15.920;2023-02-28T06:32:24;19.65;;;10.15;;
17595;SDS011;8916;47.086;15.920;2023-02-28T06:34:53;18.25;;;9.38;;
17595;SDS011;8916;47.086;15.920;2023-02-28T06:37:24;18.20;;;9.85;;
17595;SDS011;8916;47.086;15.920;2023-02-28T06:39:54;16.90;;;10.43;;
17595;SDS011;8916;47.086;15.920;2023-02-28T06:42:24;19.10;;;9.55;;
17595;SDS011;8916;47.086;15.920;2023-02-28T06:44:55;17.60;;;10.02;;
17595;SDS011;8916;47.086;15.920;2023-02-28T06:47:26;17.17;;;9.75;;
17595;SDS011;8916;47.086;15.920;2023-02-28T06:49:55;21.33;;;10.10;;
17595;SDS011;8916;47.086;15.920;2023-02-28T06:52:24;19.60;;;10.20;;
17595;SDS011;8916;47.086;15.920;2023-02-28T06:54:53;26.52;;;13.85;;
17595;SDS011;8916;47.086;15.920;2023-02-28T06:57:27;27.50;;;13.63;;
17595;SDS011;8916;47.086;15.920;2023-02-28T06:59:58;19.92;;;9.98;;
17595;SDS011;8916;47.086;15.920;2023-02-28T07:02:31;20.63;;;11.00;;
17595;SDS011;8916;47.086;15.920;2023-02-28T07:05:00;22.33;;;10.95;;
17595;SDS011;8916;47.086;15.920;2023-02-28T07:07:29;21.50;;;11.73;;
17595;SDS011;8916;47.086;15.920;2023-02-28T07:09:59;18.25;;;10.68;;
17595;SDS011;8916;47.086;15.920;2023-02-28T07:12:28;20.20;;;11.07;;
17595;SDS011;8916;47.086;15.920;2023-02-28T07:14:57;23.27;;;12.25;;
17595;SDS011;8916;47.086;15.920;2023-02-28T07:17:26;20.27;;;11.02;;
17595;SDS011;8916;47.086;15.920;2023-02-28T07:19:56;21.92;;;11.52;;
17595;SDS011;8916;47.086;15.920;2023-02-28T07:22:26;19.90;;;11.35;;
17595;SDS011;8916;47.086;15.920;2023-02-28T07:24:55;22.58;;;11.25;;
17595;SDS011;8916;47.086;15.920;2023-02-28T07:27:24;24.42;;;12.02;;
17595;SDS011;8916;47.086;15.920;2023-02-28T07:29:53;30.90;;;15.57;;
17595;SDS011;8916;47.086;15.920;2023-02-28T07:32:22;30.20;;;13.98;;
17595;SDS011;8916;47.086;15.920;2023-02-28T07:34:52;23.50;;;12.82;;
17595;SDS011;8916;47.086;15.920;2023-02-28T07:37:22;20.90;;;11.40;;
17595;SDS011;8916;47.086;15.920;2023-02-28T07:39:51;25.95;;;13.32;;
17595;SDS011;8916;47.086;15.920;2023-02-28T07:42:20;21.63;;;11.95;;
17595;SDS011;8916;47.086;15.920;2023-02-28T07:44:52;30.20;;;13.13;;
17595;SDS011;8916;47.086;15.920;2023-02-28T07:47:21;21.48;;;11.55;;
17595;SDS011;8916;47.086;15.920;2023-02-28T07:49:51;27.60;;;13.43;;
17595;SDS011;8916;47.086;15.920;2023-02-28T07:52:21;25.60;;;13.02;;
17595;SDS011;8916;47.086;15.920;2023-02-28T07:54:51;28.95;;;12.35;;
17595;SDS011;8916;47.086;15.920;2023-02-28T07:57:20;27.88;;;13.10;;
17595;SDS011;8916;47.086;15.920;2023-02-28T07:59:49;23.80;;;12.38;;
17595;SDS011;8916;47.086;15.920;2023-02-28T08:02:18;22.65;;;11.40;;
17595;SDS011;8916;47.086;15.920;2023-02-28T08:04:47;26.85;;;13.32;;
17595;SDS011;8916;47.086;15.920;2023-02-28T08:07:17;22.58;;;12.65;;
17595;SDS011;8916;47.086;15.920;2023-02-28T08:09:48;25.67;;;12.93;;
17595;SDS011;8916;47.086;15.920;2023-02-28T08:12:17;27.65;;;13.20;;
17595;SDS011;8916;47.086;15.920;2023-02-28T08:14:46;28.00;;;13.32;;
17595;SDS011;8916;47.086;15.920;2023-02-28T08:17:15;21.83;;;12.55;;
17595;SDS011;8916;47.086;15.920;2023-02-28T08:19:45;23.33;;;11.98;;
17595;SDS011;8916;47.086;15.920;2023-02-28T08:22:14;24.02;;;13.13;;
17595;SDS011;8916;47.086;15.920;2023-02-28T08:24:43;21.67;;;12.18;;
17595;SDS011;8916;47.086;15.920;2023-02-28T08:27:14;21.15;;;12.48;;
17595;SDS011;8916;47.086;15.920;2023-02-28T08:29:43;28.70;;;12.80;;
17595;SDS011;8916;47.086;15.920;2023-02-28T08:32:12;23.02;;;11.73;;
17595;SDS011;8916;47.086;15.920;2023-02-28T08:34:56;23.08;;;12.98;;
17595;SDS011;8916;47.086;15.920;2023-02-28T08:37:25;26.65;;;12.63;;
17595;SDS011;8916;47.086;15.920;2023-02-28T08:39:54;28.92;;;13.75;;
17595;SDS011;8916;47.086;15.920;2023-02-28T08:42:24;29.45;;;14.00;;
17595;SDS011;8916;47.086;15.920;2023-02-28T08:44:54;25.00;;;14.20;;
17595;SDS011;8916;47.086;15.920;2023-02-28T08:47:23;27.77;;;13.95;;
17595;SDS011;8916;47.086;15.920;2023-02-28T08:49:52;25.55;;;13.93;;
17595;SDS011;8916;47.086;15.920;2023-02-28T08:52:21;24.38;;;13.07;;
17595;SDS011;8916;47.086;15.920;2023-02-28T08:54:50;27.38;;;12.82;;
17595;SDS011;8916;47.086;15.920;2023-02-28T08:57:19;25.17;;;13.43;;
17595;SDS011;8916;47.086;15.920;2023-02-28T08:59:50;25.13;;;13.85;;
17595;SDS011;8916;47.086;15.920;2023-02-28T09:02:19;23.58;;;13.65;;
17595;SDS011;8916;47.086;15.920;2023-02-28T09:04:48;29.42;;;13.93;;
17595;SDS011;8916;47.086;15.920;2023-02-28T09:07:17;26.52;;;13.50;;
17595;SDS011;8916;47.086;15.920;2023-02-28T09:09:46;23.25;;;13.30;;
17595;SDS011;8916;47.086;15.920;2023-02-28T09:12:22;25.27;;;13.25;;
17595;SDS011;8916;47.086;15.920;2023-02-28T09:14:53;25.55;;;12.63;;
17595;SDS011;8916;47.086;15.920;2023-02-28T09:17:24;27.75;;;12.57;;
17595;SDS011;8916;47.086;15.920;2023-02-28T09:19:57;23.13;;;12.68;;
17595;SDS011;8916;47.086;15.920;2023-02-28T09:22:26;24.13;;;12.43;;
17595;SDS011;8916;47.086;15.920;2023-02-28T09:24:55;23.30;;;12.70;;
17595;SDS011;8916;47.086;15.920;2023-02-28T09:27:24;26.88;;;13.38;;
17595;SDS011;8916;47.086;15.920;2023-02-28T09:29:55;26.65;;;13.57;;
17595;SDS011;8916;47.086;15.920;2023-02-28T09:32:24;24.75;;;12.63;;
17595;SDS011;8916;47.086;15.920;2023-02-28T09:34:53;20.65;;;12.65;;
17595;SDS011;8916;47.086;15.920;2023-02-28T09:37:22;24.55;;;12.57;;
17595;SDS011;8916;47.086;15.920;2023-02-28T09:39:53;23.30;;;13.23;;
17595;SDS011;8916;47.086;15.920;2023-02-28T09:42:24;26.48;;;13.48;;
17595;SDS011;8916;47.086;15.920;2023-02-28T09:45:02;23.65;;;13.27;;
17595;SDS011;8916;47.086;15.920;2023-02-28T09:47:42;24.48;;;13.75;;
17595;SDS011;8916;47.086;15.920;2023-02-28T09:50:17;23.35;;;12.88;;
17595;SDS011;8916;47.086;15.920;2023-02-28T09:53:01;27.45;;;14.02;;
17595;SDS011;8916;47.086;15.920;2023-02-28T09:55:39;26.40;;;14.25;;
17595;SDS011;8916;47.086;15.920;2023-02-28T09:58:16;30.75;;;14.95;;
17595;SDS011;8916;47.086;15.920;2023-02-28T10:00:52;27.88;;;14.52;;
17595;SDS011;8916;47.086;15.920;2023-02-28T10:03:30;28.85;;;15.25;;
17595;SDS011;8916;47.086;15.920;2023-02-28T10:06:06;31.35;;;16.05;;
17595;SDS011;8916;47.086;15.920;2023-02-28T10:08:42;137.23;;;58.78;;
17595;SDS011;8916;47.086;15.920;2023-02-28T10:11:20;40.95;;;20.90;;
17595;SDS011;8916;47.086;15.920;2023-02-28T10:13:52;28.98;;;15.50;;
17595;SDS011;8916;47.086;15.920;2023-02-28T10:16:31;64.22;;;28.45;;
17595;SDS011;8916;47.086;15.920;2023-02-28T10:19:05;30.08;;;16.63;;
17595;SDS011;8916;47.086;15.920;2023-02-28T10:21:42;37.53;;;17.67;;
17595;SDS011;8916;47.086;15.920;2023-02-28T10:24:23;27.65;;;12.52;;
17595;SDS011;8916;47.086;15.920;2023-02-28T10:26:59;30.95;;;14.43;;
17595;SDS011;8916;47.086;15.920;2023-02-28T10:29:42;32.25;;;14.95;;
17595;SDS011;8916;47.086;15.920;2023-02-28T10:32:15;33.03;;;15.75;;
17595;SDS011;8916;47.086;15.920;2023-02-28T10:34:49;29.58;;;15.57;;
17595;SDS011;8916;47.086;15.920;2023-02-28T10:37:20;30.40;;;15.27;;
17595;SDS011;8916;47.086;15.920;2023-02-28T10:39:49;37.80;;;17.27;;
17595;SDS011;8916;47.086;15.920;2023-02-28T10:42:20;34.85;;;17.02;;
17595;SDS011;8916;47.086;15.920;2023-02-28T10:45:06;26.90;;;15.00;;
17595;SDS011;8916;47.086;15.920;2023-02-28T10:47:48;32.30;;;15.27;;
17595;SDS011;8916;47.086;15.920;2023-02-28T10:50:32;33.72;;;15.05;;
17595;SDS011;8916;47.086;15.920;2023-02-28T10:53:15;39.47;;;19.25;;
17595;SDS011;8916;47.086;15.920;2023-02-28T10:56:23;37.42;;;17.73;;
17595;SDS011;8916;47.086;15.920;2023-02-28T10:58:54;45.75;;;20.15;;
17595;SDS011;8916;47.086;15.920;2023-02-28T11:01:38;47.25;;;21.10;;
17595;SDS011;8916;47.086;15.920;2023-02-28T11:04:19;48.40;;;21.80;;
17595;SDS011;8916;47.086;15.920;2023-02-28T11:07:03;39.65;;;20.55;;
17595;SDS011;8916;47.086;15.920;2023-02-28T11:09:35;42.08;;;19.50;;
17595;SDS011;8916;47.086;15.920;2023-02-28T11:12:10;42.45;;;19.58;;
17595;SDS011;8916;47.086;15.920;2023-02-28T11:14:51;41.47;;;19.83;;
17595;SDS011;8916;47.086;15.920;2023-02-28T11:17:23;45.20;;;20.23;;
17595;SDS011;8916;47.086;15.920;2023-02-28T11:19:57;40.30;;;18.42;;
17595;SDS011;8916;47.086;15.920;2023-02-28T11:22:31;47.85;;;21.73;;
17595;SDS011;8916;47.086;15.920;2023-02-28T11:25:06;45.58;;;19.38;;
17595;SDS011;8916;47.086;15.920;2023-02-28T11:27:47;46.83;;;19.88;;
17595;SDS011;8916;47.086;15.920;2023-02-28T11:30:26;42.95;;;21.52;;
17595;SDS011;8916;47.086;15.920;2023-02-28T11:33:18;42.58;;;19.48;;
17595;SDS011;8916;47.086;15.920;2023-02-28T11:35:57;45.33;;;19.42;;
17595;SDS011;8916;47.086;15.920;2023-02-28T11:38:30;43.42;;;19.80;;
17595;SDS011;8916;47.086;15.920;2023-02-28T11:41:17;43.28;;;19.77;;
17595;SDS011;8916;47.086;15.920;2023-02-28T11:44:20;51.72;;;21.50;;
17595;SDS011;8916;47.086;15.920;2023-02-28T11:47:03;38.30;;;19.92;;
17595;SDS011;8916;47.086;15.920;2023-02-28T11:49:42;44.40;;;20.38;;
17595;SDS011;8916;47.086;15.920;2023-02-28T11:52:28;43.85;;;19.83;;
17595;SDS011;8916;47.086;15.920;2023-02-28T11:55:11;41.05;;;19.00;;
17595;SDS011;8916;47.086;15.920;2023-02-28T11:57:51;47.63;;;19.83;;
17595;SDS011;8916;47.086;15.920;2023-02-28T12:00:56;44.92;;;20.45;;
17595;SDS011;8916;47.086;15.920;2023-02-28T12:03:45;37.17;;;19.35;;
17595;SDS011;8916;47.086;15.920;2023-02-28T12:06:32;42.92;;;21.05;;
17595;SDS011;8916;47.086;15.920;2023-02-28T12:09:13;48.13;;;21.63;;
17595;SDS011;8916;47.086;15.920;2023-02-28T12:11:59;52.13;;;21.73;;
17595;SDS011;8916;47.086;15.920;2023-02-28T12:14:49;55.35;;;23.83;;
17595;SDS011;8916;47.086;15.920;2023-02-28T12:17:37;54.47;;;24.05;;
17595;SDS011;8916;47.086;15.920;2023-02-28T12:20:22;59.13;;;26.05;;
17595;SDS011;8916;47.086;15.920;2023-02-28T12:23:01;66.55;;;27.42;;
17595;SDS011;8916;47.086;15.920;2023-02-28T12:25:54;64.93;;;27.40;;
17595;SDS011;8916;47.086;15.920;2023-02-28T12:28:34;70.30;;;28.30;;
17595;SDS011;8916;47.086;15.920;2023-02-28T12:31:08;63.03;;;27.00;;
17595;SDS011;8916;47.086;15.920;2023-02-28T12:33:43;65.55;;;27.58;;
17595;SDS011;8916;47.086;15.920;2023-02-28T12:36:16;58.22;;;25.67;;
17595;SDS011;8916;47.086;15.920;2023-02-28T12:38:50;59.53;;;26.58;;
17595;SDS011;8916;47.086;15.920;2023-02-28T12:41:29;58.97;;;26.42;;
17595;SDS011;8916;47.086;15.920;2023-02-28T12:44:09;55.22;;;24.77;;
17595;SDS011;8916;47.086;15.920;2023-02-28T12:46:45;62.13;;;26.35;;
17595;SDS011;8916;47.086;15.920;2023-02-28T12:49:19;58.65;;;25.65;;
17595;SDS011;8916;47.086;15.920;2023-02-28T12:51:54;63.13;;;25.77;;
17595;SDS011;8916;47.086;15.920;2023-02-28T12:54:24;55.40;;;24.48;;
17595;SDS011;8916;47.086;15.920;2023-02-28T12:57:02;57.53;;;24.65;;
17595;SDS011;8916;47.086;15.920;2023-02-28T12:59:41;57.83;;;25.20;;
17595;SDS011;8916;47.086;15.920;2023-02-28T13:02:32;51.63;;;23.70;;
17595;SDS011;8916;47.086;15.920;2023-02-28T13:05:32;51.38;;;22.52;;
17595;SDS011;8916;47.086;15.920;2023-02-28T13:08:27;53.90;;;23.02;;
17595;SDS011;8916;47.086;15.920;2023-02-28T13:11:26;49.97;;;22.38;;
17595;SDS011;8916;47.086;15.920;2023-02-28T13:16:50;49.80;;;23.02;;
17595;SDS011;8916;47.086;15.920;2023-02-28T13:19:32;44.33;;;20.15;;
17595;SDS011;8916;47.086;15.920;2023-02-28T13:22:04;35.03;;;19.35;;
17595;SDS011;8916;47.086;15.920;2023-02-28T13:24:48;33.60;;;18.35;;
17595;SDS011;8916;47.086;15.920;2023-02-28T13:27:22;36.40;;;19.35;;
17595;SDS011;8916;47.086;15.920;2023-02-28T13:33:31;39.75;;;19.58;;
17595;SDS011;8916;47.086;15.920;2023-02-28T13:36:22;41.13;;;20.17;;
17595;SDS011;8916;47.086;15.920;2023-02-28T13:38:54;38.85;;;18.80;;
17595;SDS011;8916;47.086;15.920;2023-02-28T13:41:42;34.47;;;18.05;;
17595;SDS011;8916;47.086;15.920;2023-02-28T13:44:16;36.75;;;18.17;;
17595;SDS011;8916;47.086;15.920;2023-02-28T13:52:51;33.83;;;16.98;;
17595;SDS011;8916;47.086;15.920;2023-02-28T13:55:42;32.75;;;16.92;;
17595;SDS011;8916;47.086;15.920;2023-02-28T13:58:22;34.80;;;16.58;;
17595;SDS011;8916;47.086;15.920;2023-02-28T14:01:10;33.60;;;15.65;;
17595;SDS011;8916;47.086;15.920;2023-02-28T14:04:09;30.65;;;16.65;;
17595;SDS011;8916;47.086;15.920;2023-02-28T14:07:05;35.67;;;16.55;;
17595;SDS011;8916;47.086;15.920;2023-02-28T14:09:37;32.33;;;15.85;;
17595;SDS011;8916;47.086;15.920;2023-02-28T14:18:23;23.05;;;12.57;;
17595;SDS011;8916;47.086;15.920;2023-02-28T14:21:12;21.40;;;11.75;;
17595;SDS011;8916;47.086;15.920;2023-02-28T14:27:02;18.13;;;10.13;;
17595;SDS011;8916;47.086;15.920;2023-02-28T14:36:27;10.95;;;7.10;;
17595;SDS011;8916;47.086;15.920;2023-02-28T14:39:05;11.52;;;7.45;;
17595;SDS011;8916;47.086;15.920;2023-02-28T14:41:36;12.38;;;8.25;;
17595;SDS011;8916;47.086;15.920;2023-02-28T14:44:14;11.93;;;8.00;;
17595;SDS011;8916;47.086;15.920;2023-02-28T14:46:47;15.02;;;9.13;;
17595;SDS011;8916;47.086;15.920;2023-02-28T14:49:23;16.30;;;10.20;;
17595;SDS011;8916;47.086;15.920;2023-02-28T14:52:05;18.75;;;10.63;;
17595;SDS011;8916;47.086;15.920;2023-02-28T14:54:43;19.63;;;10.98;;
17595;SDS011;8916;47.086;15.920;2023-02-28T14:57:20;20.67;;;10.95;;
17595;SDS011;8916;47.086;15.920;2023-02-28T14:59:56;17.83;;;9.95;;
17595;SDS011;8916;47.086;15.920;2023-02-28T15:02:38;27.70;;;12.63;;
17595;SDS011;8916;47.086;15.920;2023-02-28T15:05:25;27.40;;;14.07;;
17595;SDS011;8916;47.086;15.920;2023-02-28T15:08:03;25.48;;;13.50;;
17595;SDS011;8916;47.086;15.920;2023-02-28T15:10:39;28.98;;;14.68;;
17595;SDS011;8916;47.086;15.920;2023-02-28T15:13:12;26.35;;;14.40;;
17595;SDS011;8916;47.086;15.920;2023-02-28T15:15:45;29.40;;;14.60;;
17595;SDS011;8916;47.086;15.920;2023-02-28T15:18:31;27.73;;;14.50;;
17595;SDS011;8916;47.086;15.920;2023-02-28T15:21:12;28.15;;;13.90;;
17595;SDS011;8916;47.086;15.920;2023-02-28T15:23:48;28.85;;;14.63;;
17595;SDS011;8916;47.086;15.920;2023-02-28T15:26:21;26.60;;;13.88;;
17595;SDS011;8916;47.086;15.920;2023-02-28T15:28:58;28.10;;;14.75;;
17595;SDS011;8916;47.086;15.920;2023-02-28T15:31:31;28.67;;;13.73;;
17595;SDS011;8916;47.086;15.920;2023-02-28T15:34:26;24.83;;;13.32;;
17595;SDS011;8916;47.086;15.920;2023-02-28T15:40:10;27.10;;;13.15;;
17595;SDS011;8916;47.086;15.920;2023-02-28T15:42:57;28.77;;;14.73;;
17595;SDS011;8916;47.086;15.920;2023-02-28T15:45:37;32.22;;;14.98;;
17595;SDS011;8916;47.086;15.920;2023-02-28T15:48:17;31.00;;;14.88;;
17595;SDS011;8916;47.086;15.920;2023-02-28T15:50:49;29.55;;;14.75;;
17595;SDS011;8916;47.086;15.920;2023-02-28T15:53:22;31.30;;;14.95;;
17595;SDS011;8916;47.086;15.920;2023-02-28T15:55:56;32.28;;;15.85;;